Loman, Minnesota
Current Conditions -  °F | °C
As of 12:55 AM on Saturday 25 Oct 2014 (Local Time) from KINL Reporting Station
Clear Clear  
Wind Chill: 53°   Ceiling: Unl
Heat Index: 53°   Visibility: 10mi
Dew Point: 33°   Wind: 20mph
Humidity: 47%   Direction: 280°W
Pressure: 29.75"   Gusts: 26mph
Location:  48.51°N, 93.8°W
Report Text: KINL 250555Z AUTO 28017G23KT 10SM CLR 12/01 A2975 RMK AO2 SLP076 T01170006 10178 20111 402110078 51010
Loading
Personal Weather Stations






























Interactive Weather Map
Tropical Storm Tracking
New forecast layout! Learn more

10-Day Weather Forecast

Advertisements
Track Severe Weather on mobile